sensor_id;sensor_type;location;lat;lon;timestamp;pressure;altitude;pressure_sealevel;temperature;humidity
59104;BME280;51449;51.676;5.812;2024-03-02T00:01:13;99774.78;;;9.25;65.26
59104;BME280;51449;51.676;5.812;2024-03-02T00:03:38;99781.06;;;9.26;64.84
59104;BME280;51449;51.676;5.812;2024-03-02T00:06:01;99781.84;;;9.26;65.19
59104;BME280;51449;51.676;5.812;2024-03-02T00:08:24;99780.72;;;9.27;65.20
59104;BME280;51449;51.676;5.812;2024-03-02T00:10:50;99783.03;;;9.25;65.23
59104;BME280;51449;51.676;5.812;2024-03-02T00:13:12;99795.16;;;9.24;65.46
59104;BME280;51449;51.676;5.812;2024-03-02T00:15:48;99788.06;;;9.23;65.18
59104;BME280;51449;51.676;5.812;2024-03-02T00:18:25;99782.69;;;9.27;65.37
59104;BME280;51449;51.676;5.812;2024-03-02T00:20:54;99779.56;;;9.28;65.35
59104;BME280;51449;51.676;5.812;2024-03-02T00:23:18;99789.06;;;9.31;65.40
59104;BME280;51449;51.676;5.812;2024-03-02T00:25:43;99792.16;;;9.29;65.50
59104;BME280;51449;51.676;5.812;2024-03-02T00:28:14;99786.31;;;9.31;65.42
59104;BME280;51449;51.676;5.812;2024-03-02T00:33:12;99793.16;;;9.37;65.30
59104;BME280;51449;51.676;5.812;2024-03-02T00:35:34;99781.81;;;9.38;65.44
59104;BME280;51449;51.676;5.812;2024-03-02T00:37:55;99793.69;;;9.42;65.34
59104;BME280;51449;51.676;5.812;2024-03-02T00:40:17;99786.25;;;9.43;65.64
59104;BME280;51449;51.676;5.812;2024-03-02T00:42:40;99799.31;;;9.46;65.32
59104;BME280;51449;51.676;5.812;2024-03-02T00:45:10;99803.66;;;9.47;65.60
59104;BME280;51449;51.676;5.812;2024-03-02T00:47:32;99805.22;;;9.48;65.83
59104;BME280;51449;51.676;5.812;2024-03-02T00:49:59;99818.91;;;9.45;66.02
59104;BME280;51449;51.676;5.812;2024-03-02T00:52:20;99834.16;;;9.42;65.72
59104;BME280;51449;51.676;5.812;2024-03-02T00:54:42;99829.44;;;9.42;65.71
59104;BME280;51449;51.676;5.812;2024-03-02T00:57:10;99856.94;;;9.42;65.80
59104;BME280;51449;51.676;5.812;2024-03-02T00:59:33;99879.25;;;9.41;65.75
59104;BME280;51449;51.676;5.812;2024-03-02T01:01:55;99883.09;;;9.36;66.82
59104;BME280;51449;51.676;5.812;2024-03-02T01:04:17;99881.94;;;9.37;67.03
59104;BME280;51449;51.676;5.812;2024-03-02T01:06:39;99896.47;;;9.38;67.76
59104;BME280;51449;51.676;5.812;2024-03-02T01:09:01;99893.72;;;9.38;68.11
59104;BME280;51449;51.676;5.812;2024-03-02T01:11:24;99888.13;;;9.34;68.59
59104;BME280;51449;51.676;5.812;2024-03-02T01:13:46;99888.91;;;9.35;68.45
59104;BME280;51449;51.676;5.812;2024-03-02T01:16:08;99900.63;;;9.32;69.08
59104;BME280;51449;51.676;5.812;2024-03-02T01:18:29;99902.13;;;9.29;69.42
59104;BME280;51449;51.676;5.812;2024-03-02T01:20:52;99905.22;;;9.28;69.72
59104;BME280;51449;51.676;5.812;2024-03-02T01:23:17;99900.41;;;9.25;69.40
59104;BME280;51449;51.676;5.812;2024-03-02T01:25:41;99910.56;;;9.24;69.31
59104;BME280;51449;51.676;5.812;2024-03-02T01:28:04;99901.44;;;9.20;70.00
59104;BME280;51449;51.676;5.812;2024-03-02T01:30:26;99888.41;;;9.17;69.56
59104;BME280;51449;51.676;5.812;2024-03-02T01:32:48;99896.66;;;9.17;69.85
59104;BME280;51449;51.676;5.812;2024-03-02T01:35:10;99888.75;;;9.15;69.86
59104;BME280;51449;51.676;5.812;2024-03-02T01:37:32;99899.41;;;9.17;69.86
59104;BME280;51449;51.676;5.812;2024-03-02T01:39:54;99897.78;;;9.16;70.21
59104;BME280;51449;51.676;5.812;2024-03-02T01:42:16;99897.31;;;9.14;69.95
59104;BME280;51449;51.676;5.812;2024-03-02T01:44:39;99888.63;;;9.12;69.97
59104;BME280;51449;51.676;5.812;2024-03-02T01:47:02;99894.34;;;9.07;70.25
59104;BME280;51449;51.676;5.812;2024-03-02T01:49:23;99891.63;;;9.07;69.86
59104;BME280;51449;51.676;5.812;2024-03-02T01:51:45;99880.19;;;9.05;69.78
59104;BME280;51449;51.676;5.812;2024-03-02T01:54:07;99884.06;;;9.04;69.93
59104;BME280;51449;51.676;5.812;2024-03-02T01:56:29;99890.03;;;9.06;69.56
59104;BME280;51449;51.676;5.812;2024-03-02T01:58:51;99877.88;;;9.07;69.50
59104;BME280;51449;51.676;5.812;2024-03-02T02:01:13;99888.06;;;9.06;69.56
59104;BME280;51449;51.676;5.812;2024-03-02T02:03:35;99878.56;;;9.04;69.31
59104;BME280;51449;51.676;5.812;2024-03-02T02:05:58;99874.56;;;9.01;69.35
59104;BME280;51449;51.676;5.812;2024-03-02T02:08:20;99875.72;;;9.00;69.04
59104;BME280;51449;51.676;5.812;2024-03-02T02:10:42;99874.25;;;9.03;69.39
59104;BME280;51449;51.676;5.812;2024-03-02T02:13:04;99869.19;;;9.05;69.08
59104;BME280;51449;51.676;5.812;2024-03-02T02:15:27;99863.00;;;9.08;68.98
59104;BME280;51449;51.676;5.812;2024-03-02T02:17:50;99866.56;;;9.08;69.01
59104;BME280;51449;51.676;5.812;2024-03-02T02:20:12;99868.75;;;9.03;69.04
59104;BME280;51449;51.676;5.812;2024-03-02T02:22:34;99872.28;;;9.03;68.93
59104;BME280;51449;51.676;5.812;2024-03-02T02:24:56;99875.03;;;9.03;69.01
59104;BME280;51449;51.676;5.812;2024-03-02T02:27:18;99874.69;;;9.05;69.00
59104;BME280;51449;51.676;5.812;2024-03-02T02:29:40;99884.31;;;8.98;68.96
59104;BME280;51449;51.676;5.812;2024-03-02T02:32:02;99877.66;;;8.99;69.14
59104;BME280;51449;51.676;5.812;2024-03-02T02:34:24;99875.28;;;8.98;68.96
59104;BME280;51449;51.676;5.812;2024-03-02T02:36:46;99884.31;;;8.98;69.12
59104;BME280;51449;51.676;5.812;2024-03-02T02:39:11;99886.97;;;8.95;70.01
59104;BME280;51449;51.676;5.812;2024-03-02T02:41:36;99876.56;;;8.88;70.43
59104;BME280;51449;51.676;5.812;2024-03-02T02:43:58;99880.00;;;8.85;70.64
59104;BME280;51449;51.676;5.812;2024-03-02T02:46:20;99882.94;;;8.80;70.88
59104;BME280;51449;51.676;5.812;2024-03-02T02:48:42;99873.13;;;8.79;70.84
59104;BME280;51449;51.676;5.812;2024-03-02T02:51:04;99876.66;;;8.79;70.94
59104;BME280;51449;51.676;5.812;2024-03-02T02:53:25;99877.03;;;8.78;71.50
59104;BME280;51449;51.676;5.812;2024-03-02T02:55:47;99868.56;;;8.71;71.99
59104;BME280;51449;51.676;5.812;2024-03-02T02:58:09;99875.56;;;8.68;71.88
59104;BME280;51449;51.676;5.812;2024-03-02T03:00:31;99872.34;;;8.66;72.07
59104;BME280;51449;51.676;5.812;2024-03-02T03:02:53;99866.38;;;8.64;72.57
59104;BME280;51449;51.676;5.812;2024-03-02T03:05:15;99870.72;;;8.65;72.31
59104;BME280;51449;51.676;5.812;2024-03-02T03:07:39;99863.97;;;8.63;72.77
59104;BME280;51449;51.676;5.812;2024-03-02T03:10:02;99866.63;;;8.59;72.78
59104;BME280;51449;51.676;5.812;2024-03-02T03:12:25;99886.16;;;8.57;73.05
59104;BME280;51449;51.676;5.812;2024-03-02T03:14:47;99885.59;;;8.52;73.34
59104;BME280;51449;51.676;5.812;2024-03-02T03:17:09;99885.59;;;8.52;73.58
59104;BME280;51449;51.676;5.812;2024-03-02T03:19:31;99880.81;;;8.49;73.63
59104;BME280;51449;51.676;5.812;2024-03-02T03:21:53;99895.56;;;8.44;73.59
59104;BME280;51449;51.676;5.812;2024-03-02T03:24:15;99885.47;;;8.48;73.47
59104;BME280;51449;51.676;5.812;2024-03-02T03:26:36;99898.78;;;8.46;73.89
59104;BME280;51449;51.676;5.812;2024-03-02T03:28:58;99890.97;;;8.48;73.88
59104;BME280;51449;51.676;5.812;2024-03-02T03:31:20;99903.91;;;8.48;73.65
59104;BME280;51449;51.676;5.812;2024-03-02T03:33:42;99904.91;;;8.43;74.19
59104;BME280;51449;51.676;5.812;2024-03-02T03:36:04;99904.13;;;8.43;74.00
59104;BME280;51449;51.676;5.812;2024-03-02T03:38:25;99910.78;;;8.42;73.66
59104;BME280;51449;51.676;5.812;2024-03-02T03:40:47;99912.88;;;8.36;74.05
59104;BME280;51449;51.676;5.812;2024-03-02T03:43:10;99910.84;;;8.33;74.34
59104;BME280;51449;51.676;5.812;2024-03-02T03:45:32;99902.13;;;8.31;74.14
59104;BME280;51449;51.676;5.812;2024-03-02T03:47:54;99902.72;;;8.36;73.98
59104;BME280;51449;51.676;5.812;2024-03-02T03:50:17;99897.38;;;8.40;73.62
59104;BME280;51449;51.676;5.812;2024-03-02T03:52:38;99906.06;;;8.42;73.29
59104;BME280;51449;51.676;5.812;2024-03-02T03:55:01;99921.75;;;8.42;73.75
59104;BME280;51449;51.676;5.812;2024-03-02T03:57:23;99943.91;;;8.36;73.62
59104;BME280;51449;51.676;5.812;2024-03-02T03:59:44;99936.00;;;8.35;73.97
59104;BME280;51449;51.676;5.812;2024-03-02T04:02:08;99936.47;;;8.37;74.39
59104;BME280;51449;51.676;5.812;2024-03-02T04:04:30;99914.72;;;8.32;74.44
59104;BME280;51449;51.676;5.812;2024-03-02T04:06:52;99914.38;;;8.33;74.34
59104;BME280;51449;51.676;5.812;2024-03-02T04:09:14;99895.63;;;8.35;74.23
59104;BME280;51449;51.676;5.812;2024-03-02T04:11:36;99906.13;;;8.33;74.25
59104;BME280;51449;51.676;5.812;2024-03-02T04:13:57;99922.13;;;8.31;74.24
59104;BME280;51449;51.676;5.812;2024-03-02T04:16:19;99904.09;;;8.30;73.99
59104;BME280;51449;51.676;5.812;2024-03-02T04:18:41;99905.25;;;8.29;74.04
59104;BME280;51449;51.676;5.812;2024-03-02T04:21:03;99901.22;;;8.27;74.53
59104;BME280;51449;51.676;5.812;2024-03-02T04:23:26;99923.06;;;8.23;74.47
59104;BME280;51449;51.676;5.812;2024-03-02T04:25:48;99927.16;;;8.17;74.47
59104;BME280;51449;51.676;5.812;2024-03-02T04:28:09;99920.84;;;8.17;74.33
59104;BME280;51449;51.676;5.812;2024-03-02T04:30:31;99921.22;;;8.15;74.14
59104;BME280;51449;51.676;5.812;2024-03-02T04:32:53;99918.81;;;8.13;74.07
59104;BME280;51449;51.676;5.812;2024-03-02T04:35:16;99919.13;;;8.12;74.14
59104;BME280;51449;51.676;5.812;2024-03-02T04:37:38;99910.78;;;8.08;74.33
59104;BME280;51449;51.676;5.812;2024-03-02T04:40:00;99918.22;;;8.08;74.07
59104;BME280;51449;51.676;5.812;2024-03-02T04:42:22;99924.03;;;8.06;73.97
59104;BME280;51449;51.676;5.812;2024-03-02T04:44:44;99919.56;;;8.02;73.36
59104;BME280;51449;51.676;5.812;2024-03-02T04:47:06;99928.63;;;8.02;73.74
59104;BME280;51449;51.676;5.812;2024-03-02T04:49:27;99923.00;;;7.99;73.88
59104;BME280;51449;51.676;5.812;2024-03-02T04:51:50;99925.75;;;7.99;73.66
59104;BME280;51449;51.676;5.812;2024-03-02T04:54:11;99936.25;;;7.97;73.69
59104;BME280;51449;51.676;5.812;2024-03-02T04:56:35;99933.72;;;7.91;73.93
59104;BME280;51449;51.676;5.812;2024-03-02T04:59:11;99936.34;;;7.88;73.69
59104;BME280;51449;51.676;5.812;2024-03-02T05:01:33;99945.69;;;7.87;73.69
59104;BME280;51449;51.676;5.812;2024-03-02T05:03:55;99948.09;;;7.88;73.54
59104;BME280;51449;51.676;5.812;2024-03-02T05:06:18;99949.38;;;7.91;73.27
59104;BME280;51449;51.676;5.812;2024-03-02T05:08:40;99955.31;;;7.93;73.54
59104;BME280;51449;51.676;5.812;2024-03-02T05:11:02;99954.97;;;7.94;73.46
59104;BME280;51449;51.676;5.812;2024-03-02T05:13:42;99954.97;;;7.94;73.27
59104;BME280;51449;51.676;5.812;2024-03-02T05:16:04;99950.31;;;7.95;73.26
59104;BME280;51449;51.676;5.812;2024-03-02T05:18:26;99953.06;;;7.95;73.21
59104;BME280;51449;51.676;5.812;2024-03-02T05:20:48;99956.91;;;7.94;72.97
59104;BME280;51449;51.676;5.812;2024-03-02T05:23:09;99953.84;;;7.96;73.22
59104;BME280;51449;51.676;5.812;2024-03-02T05:25:32;99957.38;;;7.96;73.12
59104;BME280;51449;51.676;5.812;2024-03-02T05:27:54;99956.25;;;7.97;73.25
59104;BME280;51449;51.676;5.812;2024-03-02T05:30:16;99957.59;;;7.91;73.31
59104;BME280;51449;51.676;5.812;2024-03-02T05:32:38;99967.41;;;7.92;73.78
59104;BME280;51449;51.676;5.812;2024-03-02T05:35:00;99968.25;;;7.92;73.69
59104;BME280;51449;51.676;5.812;2024-03-02T05:37:21;99966.31;;;7.93;73.58
59104;BME280;51449;51.676;5.812;2024-03-02T05:39:43;99967.78;;;7.90;73.60
59104;BME280;51449;51.676;5.812;2024-03-02T05:42:05;99968.91;;;7.89;73.35
59104;BME280;51449;51.676;5.812;2024-03-02T05:44:27;99971.00;;;7.92;73.16
59104;BME280;51449;51.676;5.812;2024-03-02T05:46:49;99964.22;;;7.90;73.09
59104;BME280;51449;51.676;5.812;2024-03-02T05:49:11;99968.91;;;7.89;73.28
59104;BME280;51449;51.676;5.812;2024-03-02T05:51:33;99970.38;;;7.87;73.15
59104;BME280;51449;51.676;5.812;2024-03-02T05:53:55;99966.84;;;7.86;73.10
59104;BME280;51449;51.676;5.812;2024-03-02T05:56:16;99973.00;;;7.83;72.63
59104;BME280;51449;51.676;5.812;2024-03-02T05:58:38;99974.81;;;7.79;73.13
59104;BME280;51449;51.676;5.812;2024-03-02T06:01:19;99975.13;;;7.78;73.21
59104;BME280;51449;51.676;5.812;2024-03-02T06:03:41;99973.53;;;7.77;72.96
59104;BME280;51449;51.676;5.812;2024-03-02T06:06:03;99977.44;;;7.76;72.74
59104;BME280;51449;51.676;5.812;2024-03-02T06:08:25;99980.03;;;7.72;72.79
59104;BME280;51449;51.676;5.812;2024-03-02T06:10:47;99986.19;;;7.69;72.82
59104;BME280;51449;51.676;5.812;2024-03-02T06:13:09;99986.03;;;7.65;73.33
59104;BME280;51449;51.676;5.812;2024-03-02T06:15:30;99981.69;;;7.64;73.41
59104;BME280;51449;51.676;5.812;2024-03-02T06:17:52;99986.84;;;7.66;72.76
59104;BME280;51449;51.676;5.812;2024-03-02T06:20:14;99993.81;;;7.63;72.79
59104;BME280;51449;51.676;5.812;2024-03-02T06:22:36;99987.38;;;7.59;73.25
59104;BME280;51449;51.676;5.812;2024-03-02T06:24:58;99986.44;;;7.55;73.47
59104;BME280;51449;51.676;5.812;2024-03-02T06:27:20;99991.00;;;7.51;73.41
59104;BME280;51449;51.676;5.812;2024-03-02T06:29:42;100001.69;;;7.44;73.90
59104;BME280;51449;51.676;5.812;2024-03-02T06:32:04;99999.94;;;7.39;74.02
59104;BME280;51449;51.676;5.812;2024-03-02T06:34:26;99998.69;;;7.37;74.55
59104;BME280;51449;51.676;5.812;2024-03-02T06:36:47;100009.00;;;7.31;74.80
59104;BME280;51449;51.676;5.812;2024-03-02T06:39:09;100014.16;;;7.33;74.81
59104;BME280;51449;51.676;5.812;2024-03-02T06:41:31;100009.97;;;7.35;74.36
59104;BME280;51449;51.676;5.812;2024-03-02T06:43:53;100015.75;;;7.34;74.62
59104;BME280;51449;51.676;5.812;2024-03-02T06:46:21;100014.63;;;7.35;74.81
59104;BME280;51449;51.676;5.812;2024-03-02T06:48:43;100015.13;;;7.37;74.74
59104;BME280;51449;51.676;5.812;2024-03-02T06:51:05;100012.03;;;7.38;74.40
59104;BME280;51449;51.676;5.812;2024-03-02T06:53:26;100015.25;;;7.40;74.13
59104;BME280;51449;51.676;5.812;2024-03-02T06:55:48;100013.78;;;7.43;73.90
59104;BME280;51449;51.676;5.812;2024-03-02T06:58:14;100013.94;;;7.46;74.25
59104;BME280;51449;51.676;5.812;2024-03-02T07:00:39;100010.25;;;7.84;73.18
59104;BME280;51449;51.676;5.812;2024-03-02T07:03:01;100016.88;;;8.17;71.65
59104;BME280;51449;51.676;5.812;2024-03-02T07:05:22;100020.25;;;8.22;71.29
59104;BME280;51449;51.676;5.812;2024-03-02T07:07:44;100025.16;;;8.29;71.04
59104;BME280;51449;51.676;5.812;2024-03-02T07:10:06;100013.84;;;8.30;70.66
59104;BME280;51449;51.676;5.812;2024-03-02T07:12:29;100024.91;;;8.22;70.96
59104;BME280;51449;51.676;5.812;2024-03-02T07:14:50;100029.75;;;8.25;71.38
59104;BME280;51449;51.676;5.812;2024-03-02T07:17:32;100038.31;;;8.23;71.31
59104;BME280;51449;51.676;5.812;2024-03-02T07:19:54;100038.03;;;8.16;71.88
59104;BME280;51449;51.676;5.812;2024-03-02T07:22:16;100042.25;;;8.13;72.39
59104;BME280;51449;51.676;5.812;2024-03-02T07:24:42;100045.81;;;8.14;72.77
59104;BME280;51449;51.676;5.812;2024-03-02T07:27:04;100045.81;;;8.14;72.46
59104;BME280;51449;51.676;5.812;2024-03-02T07:29:26;100050.28;;;8.19;72.94
59104;BME280;51449;51.676;5.812;2024-03-02T07:31:48;100050.06;;;8.24;72.72
59104;BME280;51449;51.676;5.812;2024-03-02T07:34:10;100046.94;;;8.34;72.94
59104;BME280;51449;51.676;5.812;2024-03-02T07:36:32;100054.78;;;8.44;73.26
59104;BME280;51449;51.676;5.812;2024-03-02T07:38:54;100048.06;;;8.54;73.58
59104;BME280;51449;51.676;5.812;2024-03-02T07:41:16;100044.41;;;8.62;73.21
59104;BME280;51449;51.676;5.812;2024-03-02T07:43:38;100043.63;;;8.74;72.93
59104;BME280;51449;51.676;5.812;2024-03-02T07:46:01;100051.88;;;8.86;72.85
59104;BME280;51449;51.676;5.812;2024-03-02T07:48:25;100044.00;;;8.97;72.05
59104;BME280;51449;51.676;5.812;2024-03-02T07:50:47;100038.16;;;9.11;71.56
59104;BME280;51449;51.676;5.812;2024-03-02T07:53:09;100031.50;;;9.24;70.92
59104;BME280;51449;51.676;5.812;2024-03-02T07:55:31;100040.13;;;9.35;70.62
59104;BME280;51449;51.676;5.812;2024-03-02T07:57:53;100039.78;;;9.49;70.19
59104;BME280;51449;51.676;5.812;2024-03-02T08:00:15;100046.84;;;9.62;69.52
59104;BME280;51449;51.676;5.812;2024-03-02T08:02:37;100035.25;;;9.69;69.03
59104;BME280;51449;51.676;5.812;2024-03-02T08:04:59;100045.88;;;9.82;68.58
59104;BME280;51449;51.676;5.812;2024-03-02T08:07:21;100035.91;;;9.90;67.89
59104;BME280;51449;51.676;5.812;2024-03-02T08:09:43;100046.28;;;9.97;67.49
59104;BME280;51449;51.676;5.812;2024-03-02T08:12:05;100048.13;;;10.05;67.58
59104;BME280;51449;51.676;5.812;2024-03-02T08:14:26;100051.22;;;10.03;66.36
59104;BME280;51449;51.676;5.812;2024-03-02T08:16:48;100062.31;;;10.07;66.44
59104;BME280;51449;51.676;5.812;2024-03-02T08:19:11;100051.75;;;10.09;66.62
59104;BME280;51449;51.676;5.812;2024-03-02T08:21:33;100054.97;;;10.11;65.50
59104;BME280;51449;51.676;5.812;2024-03-02T08:23:57;100063.22;;;10.11;65.65
59104;BME280;51449;51.676;5.812;2024-03-02T08:26:19;100059.34;;;10.12;65.29
59104;BME280;51449;51.676;5.812;2024-03-02T08:28:41;100055.88;;;10.15;65.43
59104;BME280;51449;51.676;5.812;2024-03-02T08:31:03;100070.78;;;10.14;65.02
59104;BME280;51449;51.676;5.812;2024-03-02T08:33:26;100060.22;;;10.16;64.86
59104;BME280;51449;51.676;5.812;2024-03-02T08:35:47;100070.88;;;10.18;65.12
59104;BME280;51449;51.676;5.812;2024-03-02T08:38:09;100062.72;;;10.21;65.04
59104;BME280;51449;51.676;5.812;2024-03-02T08:40:32;100063.88;;;10.20;64.68
59104;BME280;51449;51.676;5.812;2024-03-02T08:42:53;100067.34;;;10.17;63.96
59104;BME280;51449;51.676;5.812;2024-03-02T08:45:15;100065.03;;;10.19;64.25
59104;BME280;51449;51.676;5.812;2024-03-02T08:47:38;100059.97;;;10.21;64.53
59104;BME280;51449;51.676;5.812;2024-03-02T08:50:00;100063.78;;;10.29;64.82
59104;BME280;51449;51.676;5.812;2024-03-02T08:52:23;100050.91;;;10.33;64.77
59104;BME280;51449;51.676;5.812;2024-03-02T08:54:44;100060.41;;;10.36;64.78
59104;BME280;51449;51.676;5.812;2024-03-02T08:57:06;100068.06;;;10.42;63.95
59104;BME280;51449;51.676;5.812;2024-03-02T08:59:29;100064.72;;;10.49;63.67
59104;BME280;51449;51.676;5.812;2024-03-02T09:01:51;100064.00;;;10.52;63.66
59104;BME280;51449;51.676;5.812;2024-03-02T09:04:13;100068.91;;;10.59;64.05
59104;BME280;51449;51.676;5.812;2024-03-02T09:06:35;100071.03;;;10.65;63.88
59104;BME280;51449;51.676;5.812;2024-03-02T09:08:56;100073.66;;;10.74;64.17
59104;BME280;51449;51.676;5.812;2024-03-02T09:11:18;100070.53;;;10.76;64.20
59104;BME280;51449;51.676;5.812;2024-03-02T09:13:40;100073.66;;;10.74;63.09
59104;BME280;51449;51.676;5.812;2024-03-02T09:16:02;100075.50;;;10.70;62.59
59104;BME280;51449;51.676;5.812;2024-03-02T09:18:25;100073.38;;;10.63;62.06
59104;BME280;51449;51.676;5.812;2024-03-02T09:20:47;100074.88;;;10.61;62.48
59104;BME280;51449;51.676;5.812;2024-03-02T09:23:09;100073.56;;;10.70;62.87
59104;BME280;51449;51.676;5.812;2024-03-02T09:25:31;100085.19;;;10.80;62.83
59104;BME280;51449;51.676;5.812;2024-03-02T09:27:52;100086.75;;;10.93;63.26
59104;BME280;51449;51.676;5.812;2024-03-02T09:30:14;100074.47;;;11.06;63.63
59104;BME280;51449;51.676;5.812;2024-03-02T09:32:37;100075.63;;;11.21;63.04
59104;BME280;51449;51.676;5.812;2024-03-02T09:34:59;100074.28;;;11.31;62.65
59104;BME280;51449;51.676;5.812;2024-03-02T09:37:22;100071.78;;;11.42;62.27
59104;BME280;51449;51.676;5.812;2024-03-02T09:39:44;100078.28;;;11.49;62.07
59104;BME280;51449;51.676;5.812;2024-03-02T09:42:07;100058.41;;;11.60;62.09
59104;BME280;51449;51.676;5.812;2024-03-02T09:44:29;100064.59;;;11.72;61.58
59104;BME280;51449;51.676;5.812;2024-03-02T09:46:52;100060.13;;;11.84;61.56
59104;BME280;51449;51.676;5.812;2024-03-02T09:49:14;100064.38;;;11.97;61.58
59104;BME280;51449;51.676;5.812;2024-03-02T09:51:37;100066.13;;;12.05;60.79
59104;BME280;51449;51.676;5.812;2024-03-02T09:54:00;100061.22;;;12.14;60.19
59104;BME280;51449;51.676;5.812;2024-03-02T09:56:39;100072.81;;;12.24;59.85
59104;BME280;51449;51.676;5.812;2024-03-02T09:59:01;100061.41;;;12.25;58.52
59104;BME280;51449;51.676;5.812;2024-03-02T10:01:22;100071.81;;;12.32;58.55
59104;BME280;51449;51.676;5.812;2024-03-02T10:03:47;100061.41;;;12.45;59.07
59104;BME280;51449;51.676;5.812;2024-03-02T10:06:28;100077.81;;;12.57;58.87
59104;BME280;51449;51.676;5.812;2024-03-02T10:08:50;100065.00;;;12.68;58.71
59104;BME280;51449;51.676;5.812;2024-03-02T10:11:25;100062.88;;;12.81;57.65
59104;BME280;51449;51.676;5.812;2024-03-02T10:13:48;100064.66;;;12.93;58.01
59104;BME280;51449;51.676;5.812;2024-03-02T10:16:13;100060.84;;;13.01;57.28
59104;BME280;51449;51.676;5.812;2024-03-02T10:18:35;100062.13;;;13.07;56.40
59104;BME280;51449;51.676;5.812;2024-03-02T10:21:13;100058.13;;;13.04;54.71
59104;BME280;51449;51.676;5.812;2024-03-02T10:23:36;100061.75;;;13.09;55.66
59104;BME280;51449;51.676;5.812;2024-03-02T10:25:58;100048.84;;;13.16;55.76
59104;BME280;51449;51.676;5.812;2024-03-02T10:28:19;100056.53;;;13.26;56.19
59104;BME280;51449;51.676;5.812;2024-03-02T10:30:41;100043.97;;;13.29;56.09
59104;BME280;51449;51.676;5.812;2024-03-02T10:33:05;100044.78;;;13.33;56.08
59104;BME280;51449;51.676;5.812;2024-03-02T10:35:28;100042.03;;;13.33;55.04
59104;BME280;51449;51.676;5.812;2024-03-02T10:37:50;100036.59;;;13.40;55.53
59104;BME280;51449;51.676;5.812;2024-03-02T10:40:12;100031.53;;;13.46;55.47
59104;BME280;51449;51.676;5.812;2024-03-02T10:42:35;100026.50;;;13.52;54.80
59104;BME280;51449;51.676;5.812;2024-03-02T10:44:59;100032.47;;;13.54;54.77
59104;BME280;51449;51.676;5.812;2024-03-02T10:47:22;100026.59;;;13.59;54.46
59104;BME280;51449;51.676;5.812;2024-03-02T10:49:46;100017.19;;;13.63;55.18
59104;BME280;51449;51.676;5.812;2024-03-02T10:52:10;100031.38;;;13.62;53.93
59104;BME280;51449;51.676;5.812;2024-03-02T10:54:32;100030.63;;;13.65;53.88
59104;BME280;51449;51.676;5.812;2024-03-02T10:56:59;100022.06;;;13.74;54.16
59104;BME280;51449;51.676;5.812;2024-03-02T10:59:34;100022.16;;;13.81;53.88
59104;BME280;51449;51.676;5.812;2024-03-02T11:01:58;100021.81;;;13.86;52.93
59104;BME280;51449;51.676;5.812;2024-03-02T11:04:28;100016.72;;;13.88;53.01
59104;BME280;51449;51.676;5.812;2024-03-02T11:06:52;100023.50;;;13.94;52.83
59104;BME280;51449;51.676;5.812;2024-03-02T11:09:22;100030.31;;;14.00;52.34
59104;BME280;51449;51.676;5.812;2024-03-02T11:12:03;100023.94;;;13.96;51.67
59104;BME280;51449;51.676;5.812;2024-03-02T11:14:32;100023.22;;;14.03;51.74
59104;BME280;51449;51.676;5.812;2024-03-02T11:16:57;100016.50;;;14.04;51.09
59104;BME280;51449;51.676;5.812;2024-03-02T11:19:20;100020.16;;;14.11;51.53
59104;BME280;51449;51.676;5.812;2024-03-02T11:21:43;100017.81;;;14.13;50.46
59104;BME280;51449;51.676;5.812;2024-03-02T11:26:45;100011.44;;;14.09;50.67
59104;BME280;51449;51.676;5.812;2024-03-02T11:29:07;100017.47;;;14.19;51.46
59104;BME280;51449;51.676;5.812;2024-03-02T11:31:59;100025.50;;;14.27;51.61
59104;BME280;51449;51.676;5.812;2024-03-02T11:34:29;100019.25;;;14.38;51.43
59104;BME280;51449;51.676;5.812;2024-03-02T11:36:52;100008.97;;;14.38;50.25
59104;BME280;51449;51.676;5.812;2024-03-02T11:39:14;100004.47;;;14.26;48.83
59104;BME280;51449;51.676;5.812;2024-03-02T11:41:37;100008.44;;;14.25;49.08
59104;BME280;51449;51.676;5.812;2024-03-02T11:43:59;100006.47;;;14.26;49.46
59104;BME280;51449;51.676;5.812;2024-03-02T11:46:22;100003.41;;;14.34;49.42
59104;BME280;51449;51.676;5.812;2024-03-02T11:48:46;100004.22;;;14.39;49.64
59104;BME280;51449;51.676;5.812;2024-03-02T11:51:08;100001.50;;;14.42;49.92
59104;BME280;51449;51.676;5.812;2024-03-02T11:53:30;99996.81;;;14.46;49.97
59104;BME280;51449;51.676;5.812;2024-03-02T11:55:57;99999.22;;;14.51;49.83
59104;BME280;51449;51.676;5.812;2024-03-02T11:58:20;99997.28;;;14.55;50.11
59104;BME280;51449;51.676;5.812;2024-03-02T12:00:45;99992.97;;;14.58;50.26
59104;BME280;51449;51.676;5.812;2024-03-02T12:03:10;99983.47;;;14.59;49.62
59104;BME280;51449;51.676;5.812;2024-03-02T12:05:35;99989.09;;;14.66;49.70
59104;BME280;51449;51.676;5.812;2024-03-02T12:07:58;99986.81;;;14.75;49.86
59104;BME280;51449;51.676;5.812;2024-03-02T12:10:21;99986.41;;;14.77;50.00
59104;BME280;51449;51.676;5.812;2024-03-02T12:12:43;99973.75;;;14.76;49.72
59104;BME280;51449;51.676;5.812;2024-03-02T12:15:05;99982.44;;;14.74;49.52
59104;BME280;51449;51.676;5.812;2024-03-02T12:17:29;99972.09;;;14.71;49.64
59104;BME280;51449;51.676;5.812;2024-03-02T12:19:51;99972.84;;;14.65;49.61
59104;BME280;51449;51.676;5.812;2024-03-02T12:22:13;99972.41;;;14.59;49.43
59104;BME280;51449;51.676;5.812;2024-03-02T12:24:36;99963.25;;;14.55;48.91
59104;BME280;51449;51.676;5.812;2024-03-02T12:26:59;99972.34;;;14.55;49.25
59104;BME280;51449;51.676;5.812;2024-03-02T12:29:21;99971.50;;;14.51;49.64
59104;BME280;51449;51.676;5.812;2024-03-02T12:31:45;99966.69;;;14.48;49.40
59104;BME280;51449;51.676;5.812;2024-03-02T12:34:09;99955.31;;;14.53;49.70
59104;BME280;51449;51.676;5.812;2024-03-02T12:36:38;99954.19;;;14.62;49.55
59104;BME280;51449;51.676;5.812;2024-03-02T12:39:00;99947.88;;;14.65;48.37
59104;BME280;51449;51.676;5.812;2024-03-02T12:41:22;99950.28;;;14.70;48.72
59104;BME280;51449;51.676;5.812;2024-03-02T12:43:45;99946.81;;;14.80;49.13
59104;BME280;51449;51.676;5.812;2024-03-02T12:46:07;99933.41;;;14.89;48.76